^^
Station Historical Data
Daily Summary for June 15, 2017 Units:  Metric    English   Both
« Previous Day
Next Day »
Daily Weekly Monthly Yearly Custom
  High: Low: Average:
Temperature: 18.8 °C 5.9 °C 9.7 °C
Dew Point: 6.3 °C 2.2 °C 4.2 °C
Humidity: 87% 38% 70%
Wind Speed: 14.3km/h 0km/h 3.9km/h
Wind Gust: 17.7km/h - -
Wind- - SSW
Pressure: 1022.9 hPa 1019.9 hPa -
Precipitation: 0 mm    
Historical Graphs
 
 
Tabular Data for June 15, 2017
Time Temperature Dew Point Pressure Wind Wind Speed Wind Gust Humidity Rainfall Rate (Hourly) solar Conditions
00:05 11.5 °C 4.2 °C 1020.2 hPa Calm     61% 0 mm 0.0 W/m2
00:10 11.5 °C 4.2 °C 1020.2 hPa Calm     61% 0 mm 0.0 W/m2
00:15 11.4 °C 4.1 °C 1020.2 hPa Calm     61% 0 mm 0.0 W/m2
00:20 11.2 °C 4 °C 1019.9 hPa SSW 9.7 km/h 11.3 km/h 61% 0 mm 0.0 W/m2
00:30 11.2 °C 4.2 °C 1020.2 hPa SSW 1.4 km/h 6.4 km/h 62% 0 mm 0.0 W/m2
00:35 11.1 °C 4.1 °C 1020.2 hPa Calm     62% 0 mm 0.0 W/m2
00:41 11 °C 4.2 °C 1020.2 hPa Calm     63% 0 mm 0.0 W/m2
00:46 10.8 °C 4 °C 1020.2 hPa Calm     63% 0 mm 0.0 W/m2
00:52 10.7 °C 4.4 °C 1020.2 hPa Calm     65% 0 mm 0.0 W/m2
00:57 10.7 °C 4.4 °C 1020.2 hPa Calm     65% 0 mm 0.0 W/m2
01:02 10.5 °C 4 °C 1020.2 hPa Calm     64% 0 mm 0.0 W/m2
01:07 10.3 °C 4 °C 1020.2 hPa Calm     65% 0 mm 0.0 W/m2
01:17 10.1 °C 3.6 °C 1020.2 hPa Calm     64% 0 mm 0.0 W/m2
01:22 10.2 °C 3.7 °C 1020.2 hPa Calm     64% 0 mm 0.0 W/m2
01:37 10.2 °C 3.9 °C 1020.2 hPa Calm     65% 0 mm 0.0 W/m2
01:53 10.2 °C 3.9 °C 1020.5 hPa Calm     65% 0 mm 0.0 W/m2
02:03 10.1 °C 4 °C 1020.2 hPa Calm     66% 0 mm 0.0 W/m2
02:18 9.6 °C 3.8 °C 1020.5 hPa Calm     67% 0 mm 0.0 W/m2
02:23 9.2 °C 3.6 °C 1020.5 hPa Calm     68% 0 mm 0.0 W/m2
02:29 8.9 °C 3.5 °C 1020.5 hPa Calm     69% 0 mm 0.0 W/m2
02:39 8.6 °C 3.6 °C 1020.5 hPa Calm     71% 0 mm 0.0 W/m2
02:44 8.4 °C 3.6 °C 1020.5 hPa Calm     72% 0 mm 0.0 W/m2
02:49 8.4 °C 3.6 °C 1020.5 hPa Calm     72% 0 mm 0.0 W/m2
02:55 8.3 °C 3.7 °C 1020.5 hPa Calm     73% 0 mm 0.0 W/m2
03:00 8.3 °C 3.5 °C 1020.5 hPa Calm     72% 0 mm 0.0 W/m2
03:05 8.2 °C 3.6 °C 1020.5 hPa Calm     73% 0 mm 0.0 W/m2
03:10 8.2 °C 3.8 °C 1020.5 hPa Calm     74% 0 mm 0.0 W/m2
03:15 8.2 °C 3.8 °C 1020.5 hPa Calm     74% 0 mm 0.0 W/m2
03:21 8.2 °C 3.8 °C 1020.5 hPa Calm     74% 0 mm 0.0 W/m2
03:26 8 °C 3.6 °C 1020.5 hPa Calm     74% 0 mm 0.0 W/m2
03:31 7.8 °C 3.5 °C 1020.5 hPa Calm     74% 0 mm 0.0 W/m2
03:36 7.8 °C 3.8 °C 1020.5 hPa Calm     76% 0 mm 0.0 W/m2
03:41 7.8 °C 3.6 °C 1020.5 hPa Calm     75% 0 mm 0.0 W/m2
03:46 7.9 °C 3.9 °C 1020.5 hPa Calm     76% 0 mm 0.0 W/m2
03:51 8 °C 3.8 °C 1020.5 hPa Calm     75% 0 mm 0.0 W/m2
03:57 8 °C 3.8 °C 1020.5 hPa Calm     75% 0 mm 0.0 W/m2
04:02 8 °C 3.8 °C 1020.5 hPa Calm     75% 0 mm 0.0 W/m2
04:07 7.9 °C 3.6 °C 1020.5 hPa Calm     74% 0 mm 0.0 W/m2
04:13 7.4 °C 2.9 °C 1020.5 hPa Calm     73% 0 mm 0.0 W/m2
04:18 7.1 °C 2.6 °C 1020.9 hPa Calm     73% 0 mm 0.0 W/m2
04:23 6.8 °C 2.7 °C 1020.5 hPa Calm     75% 0 mm 0.0 W/m2
04:33 6.2 °C 2.3 °C 1020.9 hPa Calm     76% 0 mm 0.0 W/m2
04:38 5.9 °C 2.2 °C 1020.9 hPa Calm     77% 0 mm 0.0 W/m2
04:44 5.9 °C 2.7 °C 1020.9 hPa Calm     80% 0 mm 0.0 W/m2
04:49 6.1 °C 3.1 °C 1020.9 hPa Calm     81% 0 mm 0.0 W/m2
04:54 6.3 °C 3.3 °C 1020.5 hPa Calm     81% 0 mm 0.0 W/m2
04:59 6.3 °C 3.1 °C 1020.9 hPa Calm     80% 0 mm 0.0 W/m2
05:04 6.4 °C 3.2 °C 1020.9 hPa Calm     80% 0 mm 0.0 W/m2
05:09 6.6 °C 3.4 °C 1020.9 hPa SSW 6.4 km/h 8 km/h 80% 0 mm 0.0 W/m2
05:15 6.6 °C 3.4 °C 1020.9 hPa SSW 4.7 km/h 8 km/h 80% 0 mm 0.0 W/m2
05:20 6.7 °C 3.5 °C 1020.9 hPa SSW 7.9 km/h 8 km/h 80% 0 mm 0.0 W/m2
05:25 6.7 °C 3.1 °C 1020.9 hPa SSW 4.7 km/h 6.4 km/h 78% 0 mm 0.0 W/m2
05:35 6.7 °C 3.7 °C 1020.9 hPa SSW 9.7 km/h 9.7 km/h 81% 0 mm 0.0 W/m2
05:40 6.8 °C 3.6 °C 1020.9 hPa SSW 6.4 km/h 9.7 km/h 80% 0 mm 0.0 W/m2
05:45 6.7 °C 3.5 °C 1020.9 hPa SSW 6.4 km/h 8 km/h 80% 0 mm 0.0 W/m2
05:50 6.7 °C 3.7 °C 1020.9 hPa SSW 4.7 km/h 6.4 km/h 81% 0 mm 0.0 W/m2
06:01 6.7 °C 3.8 °C 1020.9 hPa SSW 7.9 km/h 8 km/h 82% 0 mm 0.0 W/m2
06:05 6.6 °C 3.6 °C 1021.2 hPa SSW 7.9 km/h 9.7 km/h 81% 0 mm 0.0 W/m2
06:14 6.5 °C 3.6 °C 1020.9 hPa SSW 7.9 km/h 8 km/h 82% 0 mm 0.0 W/m2
06:20 6.3 °C 3.6 °C 1021.2 hPa SSW 9.7 km/h 9.7 km/h 83% 0 mm 0.0 W/m2
06:35 6.6 °C 4.1 °C 1021.2 hPa SSW 9.7 km/h 12.9 km/h 84% 0 mm 0.0 W/m2
06:57 6.6 °C 4.1 °C 1021.2 hPa SSW 13 km/h 14.5 km/h 84% 0 mm 9.0 W/m2
07:05 6.7 °C 4.4 °C 1021.6 hPa SSW 11.1 km/h 11.3 km/h 85% 0 mm 14.0 W/m2
07:21 6.9 °C 4.7 °C 1021.9 hPa SSW 7.9 km/h 9.7 km/h 86% 0 mm 39.0 W/m2
07:42 7.6 °C 5.6 °C 1021.9 hPa SSW 7.9 km/h 11.3 km/h 87% 0 mm 125.0 W/m2
07:56 8.3 °C 5.9 °C 1022.2 hPa SSW 7.9 km/h 9.7 km/h 85% 0 mm 183.0 W/m2
08:07 8.7 °C 6.1 °C 1022.2 hPa SSW 6.4 km/h 14.5 km/h 84% 0 mm 221.0 W/m2
08:37 9.7 °C 6 °C 1022.2 hPa SSW 14.3 km/h 14.5 km/h 78% 0 mm 309.0 W/m2
08:52 10.2 °C 6.2 °C 1022.2 hPa SSW 14.3 km/h 16.1 km/h 76% 0 mm 350.0 W/m2
09:07 10.7 °C 6.1 °C 1022.6 hPa SSW 11.1 km/h 16.1 km/h 73% 0 mm 390.0 W/m2
09:33 11.6 °C 6.1 °C 1022.6 hPa SSW 7.9 km/h 17.7 km/h 69% 0 mm 445.0 W/m2
10:19 13.1 °C 6.2 °C 1022.9 hPa SSW 9.7 km/h 14.5 km/h 63% 0 mm 527.0 W/m2
10:34 13.4 °C 6.3 °C 1022.9 hPa SSW 9.7 km/h 14.5 km/h 62% 0 mm 548.0 W/m2
11:05 13.9 °C 6 °C 1022.6 hPa SSW 14.3 km/h 16.1 km/h 59% 0 mm 578.0 W/m2
11:19 14.3 °C 5.9 °C 1022.2 hPa SSW 11.1 km/h 16.1 km/h 57% 0 mm 591.0 W/m2
11:48 15.2 °C 6 °C 1022.2 hPa SSW 14.3 km/h 14.5 km/h 54% 0 mm 594.0 W/m2
11:58 15.5 °C 5.7 °C 1021.9 hPa SSW 11.1 km/h 14.5 km/h 52% 0 mm 599.0 W/m2
12:09 15.9 °C 5.5 °C 1021.9 hPa SSW 9.7 km/h 14.5 km/h 50% 0 mm 596.0 W/m2
12:20 16.1 °C 5.4 °C 1021.6 hPa SSW 9.7 km/h 12.9 km/h 49% 0 mm 596.0 W/m2
12:44 16.8 °C 5.4 °C 1021.2 hPa SSW 6.4 km/h 14.5 km/h 47% 0 mm 575.0 W/m2
13:03 17.3 °C 5.3 °C 1020.9 hPa SSW 9.7 km/h 11.3 km/h 45% 0 mm 557.0 W/m2
13:14 17.4 °C 5 °C 1020.9 hPa SSW 11.1 km/h 11.3 km/h 44% 0 mm 545.0 W/m2
13:25 17.6 °C 4.5 °C 1020.9 hPa SSW 9.7 km/h 11.3 km/h 42% 0 mm 533.0 W/m2
13:33 17.8 °C 4.4 °C 1020.5 hPa Calm     41% 0 mm 515.0 W/m2
14:07 18.4 °C 4.2 °C 1020.5 hPa Calm     39% 0 mm 462.0 W/m2
14:38 18.8 °C 4.2 °C 1020.5 hPa Calm   9.7 km/h 38% 0 mm 381.0 W/m2
Canyon Roadhouse, Fishriver Canyon, Namibia
Compliments of Weather Underground - 2 mb